sensor_id;sensor_type;location;lat;lon;timestamp;pressure;altitude;pressure_sealevel;temperature
10869;BMP180;62667;48.698;8.762;2023-05-28T00:00:26;96216.00;;;13.30
10869;BMP180;62667;48.698;8.762;2023-05-28T00:02:54;96209.00;;;13.30
10869;BMP180;62667;48.698;8.762;2023-05-28T00:05:22;96203.00;;;13.20
10869;BMP180;62667;48.698;8.762;2023-05-28T00:07:50;96213.00;;;13.30
10869;BMP180;62667;48.698;8.762;2023-05-28T00:10:18;96211.00;;;13.20
10869;BMP180;62667;48.698;8.762;2023-05-28T00:12:45;96209.00;;;13.10
10869;BMP180;62667;48.698;8.762;2023-05-28T00:15:12;96198.00;;;13.20
10869;BMP180;62667;48.698;8.762;2023-05-28T00:17:39;96197.00;;;13.00
10869;BMP180;62667;48.698;8.762;2023-05-28T00:20:07;96201.00;;;13.00
10869;BMP180;62667;48.698;8.762;2023-05-28T00:22:34;96197.00;;;13.10
10869;BMP180;62667;48.698;8.762;2023-05-28T00:25:04;96199.00;;;13.00
10869;BMP180;62667;48.698;8.762;2023-05-28T00:27:31;96202.00;;;13.00
10869;BMP180;62667;48.698;8.762;2023-05-28T00:29:58;96196.00;;;12.90
10869;BMP180;62667;48.698;8.762;2023-05-28T00:32:25;96196.00;;;12.80
10869;BMP180;62667;48.698;8.762;2023-05-28T00:34:52;96188.00;;;12.80
10869;BMP180;62667;48.698;8.762;2023-05-28T00:37:20;96176.00;;;12.60
10869;BMP180;62667;48.698;8.762;2023-05-28T00:39:47;96183.00;;;12.70
10869;BMP180;62667;48.698;8.762;2023-05-28T00:42:15;96182.00;;;12.70
10869;BMP180;62667;48.698;8.762;2023-05-28T00:44:43;96176.00;;;12.60
10869;BMP180;62667;48.698;8.762;2023-05-28T00:47:11;96180.00;;;12.50
10869;BMP180;62667;48.698;8.762;2023-05-28T00:49:38;96176.00;;;12.50
10869;BMP180;62667;48.698;8.762;2023-05-28T00:52:07;96182.00;;;12.50
10869;BMP180;62667;48.698;8.762;2023-05-28T00:54:35;96183.00;;;12.50
10869;BMP180;62667;48.698;8.762;2023-05-28T00:57:03;96177.00;;;12.30
10869;BMP180;62667;48.698;8.762;2023-05-28T00:59:33;96187.00;;;12.30
10869;BMP180;62667;48.698;8.762;2023-05-28T01:02:01;96178.00;;;12.20
10869;BMP180;62667;48.698;8.762;2023-05-28T01:04:28;96185.00;;;12.20
10869;BMP180;62667;48.698;8.762;2023-05-28T01:06:58;96183.00;;;12.30
10869;BMP180;62667;48.698;8.762;2023-05-28T01:09:25;96187.00;;;12.30
10869;BMP180;62667;48.698;8.762;2023-05-28T01:11:54;96178.00;;;12.20
10869;BMP180;62667;48.698;8.762;2023-05-28T01:14:22;96177.00;;;12.30
10869;BMP180;62667;48.698;8.762;2023-05-28T01:16:51;96172.00;;;12.20
10869;BMP180;62667;48.698;8.762;2023-05-28T01:19:22;96178.00;;;12.10
10869;BMP180;62667;48.698;8.762;2023-05-28T01:22:00;96169.00;;;12.10
10869;BMP180;62667;48.698;8.762;2023-05-28T01:24:31;96172.00;;;12.10
10869;BMP180;62667;48.698;8.762;2023-05-28T01:26:59;96174.00;;;12.20
10869;BMP180;62667;48.698;8.762;2023-05-28T01:29:27;96172.00;;;12.10
10869;BMP180;62667;48.698;8.762;2023-05-28T01:31:55;96174.00;;;12.10
10869;BMP180;62667;48.698;8.762;2023-05-28T01:34:22;96168.00;;;12.10
10869;BMP180;62667;48.698;8.762;2023-05-28T01:36:55;96164.00;;;11.90
10869;BMP180;62667;48.698;8.762;2023-05-28T01:39:27;96158.00;;;11.90
10869;BMP180;62667;48.698;8.762;2023-05-28T01:41:56;96160.00;;;11.90
10869;BMP180;62667;48.698;8.762;2023-05-28T01:44:24;96166.00;;;11.90
10869;BMP180;62667;48.698;8.762;2023-05-28T01:46:52;96163.00;;;11.80
10869;BMP180;62667;48.698;8.762;2023-05-28T01:49:22;96161.00;;;11.70
10869;BMP180;62667;48.698;8.762;2023-05-28T01:51:50;96165.00;;;11.80
10869;BMP180;62667;48.698;8.762;2023-05-28T01:54:18;96153.00;;;11.80
10869;BMP180;62667;48.698;8.762;2023-05-28T01:56:46;96152.00;;;11.80
10869;BMP180;62667;48.698;8.762;2023-05-28T01:59:14;96147.00;;;11.80
10869;BMP180;62667;48.698;8.762;2023-05-28T02:01:42;96153.00;;;11.70
10869;BMP180;62667;48.698;8.762;2023-05-28T02:04:09;96136.00;;;11.60
10869;BMP180;62667;48.698;8.762;2023-05-28T02:06:36;96145.00;;;11.50
10869;BMP180;62667;48.698;8.762;2023-05-28T02:09:04;96153.00;;;11.30
10869;BMP180;62667;48.698;8.762;2023-05-28T02:11:31;96144.00;;;11.20
10869;BMP180;62667;48.698;8.762;2023-05-28T02:13:58;96147.00;;;11.10
10869;BMP180;62667;48.698;8.762;2023-05-28T02:16:26;96134.00;;;11.00
10869;BMP180;62667;48.698;8.762;2023-05-28T02:18:54;96133.00;;;11.00
10869;BMP180;62667;48.698;8.762;2023-05-28T02:21:22;96132.00;;;11.10
10869;BMP180;62667;48.698;8.762;2023-05-28T02:23:50;96131.00;;;10.80
10869;BMP180;62667;48.698;8.762;2023-05-28T02:26:17;96123.00;;;10.90
10869;BMP180;62667;48.698;8.762;2023-05-28T02:28:44;96134.00;;;11.00
10869;BMP180;62667;48.698;8.762;2023-05-28T02:31:12;96123.00;;;11.00
10869;BMP180;62667;48.698;8.762;2023-05-28T02:33:41;96124.00;;;11.00
10869;BMP180;62667;48.698;8.762;2023-05-28T02:36:09;96126.00;;;11.00
10869;BMP180;62667;48.698;8.762;2023-05-28T02:38:38;96120.00;;;11.10
10869;BMP180;62667;48.698;8.762;2023-05-28T02:41:05;96116.00;;;11.10
10869;BMP180;62667;48.698;8.762;2023-05-28T02:43:32;96126.00;;;11.10
10869;BMP180;62667;48.698;8.762;2023-05-28T02:46:00;96126.00;;;11.00
10869;BMP180;62667;48.698;8.762;2023-05-28T02:48:27;96127.00;;;10.80
10869;BMP180;62667;48.698;8.762;2023-05-28T02:50:55;96131.00;;;10.80
10869;BMP180;62667;48.698;8.762;2023-05-28T02:53:23;96138.00;;;10.90
10869;BMP180;62667;48.698;8.762;2023-05-28T02:55:50;96127.00;;;11.00
10869;BMP180;62667;48.698;8.762;2023-05-28T02:58:17;96123.00;;;10.90
10869;BMP180;62667;48.698;8.762;2023-05-28T03:00:44;96129.00;;;10.90
10869;BMP180;62667;48.698;8.762;2023-05-28T03:03:11;96137.00;;;10.80
10869;BMP180;62667;48.698;8.762;2023-05-28T03:05:40;96126.00;;;10.80
10869;BMP180;62667;48.698;8.762;2023-05-28T03:08:09;96122.00;;;10.90
10869;BMP180;62667;48.698;8.762;2023-05-28T03:10:36;96140.00;;;10.70
10869;BMP180;62667;48.698;8.762;2023-05-28T03:13:03;96129.00;;;10.70
10869;BMP180;62667;48.698;8.762;2023-05-28T03:15:30;96133.00;;;10.60
10869;BMP180;62667;48.698;8.762;2023-05-28T03:17:57;96140.00;;;10.50
10869;BMP180;62667;48.698;8.762;2023-05-28T03:20:25;96142.00;;;10.50
10869;BMP180;62667;48.698;8.762;2023-05-28T03:22:56;96136.00;;;10.40
10869;BMP180;62667;48.698;8.762;2023-05-28T03:25:25;96143.00;;;10.40
10869;BMP180;62667;48.698;8.762;2023-05-28T03:27:52;96129.00;;;10.40
10869;BMP180;62667;48.698;8.762;2023-05-28T03:30:19;96137.00;;;10.40
10869;BMP180;62667;48.698;8.762;2023-05-28T03:32:48;96138.00;;;10.40
10869;BMP180;62667;48.698;8.762;2023-05-28T03:35:15;96143.00;;;10.30
10869;BMP180;62667;48.698;8.762;2023-05-28T03:37:42;96145.00;;;10.30
10869;BMP180;62667;48.698;8.762;2023-05-28T03:40:10;96117.00;;;10.30
10869;BMP180;62667;48.698;8.762;2023-05-28T03:42:39;96136.00;;;10.20
10869;BMP180;62667;48.698;8.762;2023-05-28T03:45:08;96139.00;;;10.40
10869;BMP180;62667;48.698;8.762;2023-05-28T03:47:35;96134.00;;;10.40
10869;BMP180;62667;48.698;8.762;2023-05-28T03:50:03;96132.00;;;10.30
10869;BMP180;62667;48.698;8.762;2023-05-28T03:52:31;96131.00;;;10.30
10869;BMP180;62667;48.698;8.762;2023-05-28T03:54:58;96128.00;;;10.40
10869;BMP180;62667;48.698;8.762;2023-05-28T03:57:25;96126.00;;;10.40
10869;BMP180;62667;48.698;8.762;2023-05-28T03:59:53;96140.00;;;10.40
10869;BMP180;62667;48.698;8.762;2023-05-28T04:02:21;96134.00;;;10.40
10869;BMP180;62667;48.698;8.762;2023-05-28T04:04:50;96134.00;;;10.50
10869;BMP180;62667;48.698;8.762;2023-05-28T04:07:17;96143.00;;;10.30
10869;BMP180;62667;48.698;8.762;2023-05-28T04:09:44;96141.00;;;10.40
10869;BMP180;62667;48.698;8.762;2023-05-28T04:12:11;96139.00;;;10.50
10869;BMP180;62667;48.698;8.762;2023-05-28T04:14:39;96130.00;;;10.50
10869;BMP180;62667;48.698;8.762;2023-05-28T04:17:08;96139.00;;;10.30
10869;BMP180;62667;48.698;8.762;2023-05-28T04:19:37;96138.00;;;10.30
10869;BMP180;62667;48.698;8.762;2023-05-28T04:22:05;96136.00;;;10.30
10869;BMP180;62667;48.698;8.762;2023-05-28T04:24:32;96137.00;;;10.40
10869;BMP180;62667;48.698;8.762;2023-05-28T04:26:59;96136.00;;;10.50
10869;BMP180;62667;48.698;8.762;2023-05-28T04:29:26;96139.00;;;10.50
10869;BMP180;62667;48.698;8.762;2023-05-28T04:31:56;96136.00;;;10.50
10869;BMP180;62667;48.698;8.762;2023-05-28T04:34:26;96140.00;;;10.50
10869;BMP180;62667;48.698;8.762;2023-05-28T04:36:53;96142.00;;;10.60
10869;BMP180;62667;48.698;8.762;2023-05-28T04:39:22;96138.00;;;10.50
10869;BMP180;62667;48.698;8.762;2023-05-28T04:41:50;96144.00;;;10.60
10869;BMP180;62667;48.698;8.762;2023-05-28T04:44:19;96152.00;;;10.50
10869;BMP180;62667;48.698;8.762;2023-05-28T04:46:46;96144.00;;;10.60
10869;BMP180;62667;48.698;8.762;2023-05-28T04:49:14;96155.00;;;10.60
10869;BMP180;62667;48.698;8.762;2023-05-28T04:51:42;96150.00;;;10.80
10869;BMP180;62667;48.698;8.762;2023-05-28T04:54:09;96151.00;;;10.80
10869;BMP180;62667;48.698;8.762;2023-05-28T04:56:36;96154.00;;;10.90
10869;BMP180;62667;48.698;8.762;2023-05-28T04:59:04;96151.00;;;10.90
10869;BMP180;62667;48.698;8.762;2023-05-28T05:01:34;96151.00;;;11.10
10869;BMP180;62667;48.698;8.762;2023-05-28T05:04:02;96148.00;;;11.10
10869;BMP180;62667;48.698;8.762;2023-05-28T05:06:29;96153.00;;;11.20
10869;BMP180;62667;48.698;8.762;2023-05-28T05:08:57;96148.00;;;11.00
10869;BMP180;62667;48.698;8.762;2023-05-28T05:11:24;96144.00;;;11.00
10869;BMP180;62667;48.698;8.762;2023-05-28T05:13:52;96148.00;;;11.00
10869;BMP180;62667;48.698;8.762;2023-05-28T05:16:21;96141.00;;;11.10
10869;BMP180;62667;48.698;8.762;2023-05-28T05:18:48;96138.00;;;11.30
10869;BMP180;62667;48.698;8.762;2023-05-28T05:21:15;96141.00;;;11.30
10869;BMP180;62667;48.698;8.762;2023-05-28T05:23:43;96141.00;;;11.40
10869;BMP180;62667;48.698;8.762;2023-05-28T05:26:11;96146.00;;;11.50
10869;BMP180;62667;48.698;8.762;2023-05-28T05:28:39;96143.00;;;11.60
10869;BMP180;62667;48.698;8.762;2023-05-28T05:31:07;96140.00;;;11.60
10869;BMP180;62667;48.698;8.762;2023-05-28T05:33:35;96131.00;;;11.80
10869;BMP180;62667;48.698;8.762;2023-05-28T05:36:02;96136.00;;;11.70
10869;BMP180;62667;48.698;8.762;2023-05-28T05:38:30;96128.00;;;11.50
10869;BMP180;62667;48.698;8.762;2023-05-28T05:40:57;96130.00;;;11.70
10869;BMP180;62667;48.698;8.762;2023-05-28T05:43:25;96131.00;;;11.80
10869;BMP180;62667;48.698;8.762;2023-05-28T05:45:53;96133.00;;;11.60
10869;BMP180;62667;48.698;8.762;2023-05-28T05:48:20;96138.00;;;11.60
10869;BMP180;62667;48.698;8.762;2023-05-28T05:50:48;96127.00;;;11.60
10869;BMP180;62667;48.698;8.762;2023-05-28T05:53:16;96128.00;;;11.80
10869;BMP180;62667;48.698;8.762;2023-05-28T05:55:44;96131.00;;;12.00
10869;BMP180;62667;48.698;8.762;2023-05-28T05:58:12;96129.00;;;12.10
10869;BMP180;62667;48.698;8.762;2023-05-28T06:00:41;96139.00;;;12.20
10869;BMP180;62667;48.698;8.762;2023-05-28T06:03:09;96146.00;;;12.20
10869;BMP180;62667;48.698;8.762;2023-05-28T06:05:37;96149.00;;;12.60
10869;BMP180;62667;48.698;8.762;2023-05-28T06:08:04;96139.00;;;12.60
10869;BMP180;62667;48.698;8.762;2023-05-28T06:10:31;96138.00;;;12.60
10869;BMP180;62667;48.698;8.762;2023-05-28T06:12:59;96141.00;;;12.70
10869;BMP180;62667;48.698;8.762;2023-05-28T06:15:27;96148.00;;;12.70
10869;BMP180;62667;48.698;8.762;2023-05-28T06:17:56;96143.00;;;13.00
10869;BMP180;62667;48.698;8.762;2023-05-28T06:20:24;96151.00;;;12.90
10869;BMP180;62667;48.698;8.762;2023-05-28T06:22:52;96146.00;;;13.10
10869;BMP180;62667;48.698;8.762;2023-05-28T06:25:20;96143.00;;;13.00
10869;BMP180;62667;48.698;8.762;2023-05-28T06:27:48;96141.00;;;13.10
10869;BMP180;62667;48.698;8.762;2023-05-28T06:30:17;96147.00;;;13.20
10869;BMP180;62667;48.698;8.762;2023-05-28T06:32:44;96143.00;;;13.50
10869;BMP180;62667;48.698;8.762;2023-05-28T06:35:13;96144.00;;;13.80
10869;BMP180;62667;48.698;8.762;2023-05-28T06:37:41;96145.00;;;13.80
10869;BMP180;62667;48.698;8.762;2023-05-28T06:40:09;96146.00;;;14.00
10869;BMP180;62667;48.698;8.762;2023-05-28T06:42:37;96147.00;;;14.10
10869;BMP180;62667;48.698;8.762;2023-05-28T06:45:05;96139.00;;;14.30
10869;BMP180;62667;48.698;8.762;2023-05-28T06:47:33;96145.00;;;14.50
10869;BMP180;62667;48.698;8.762;2023-05-28T06:50:01;96154.00;;;14.40
10869;BMP180;62667;48.698;8.762;2023-05-28T06:52:30;96146.00;;;14.60
10869;BMP180;62667;48.698;8.762;2023-05-28T06:54:57;96142.00;;;14.60
10869;BMP180;62667;48.698;8.762;2023-05-28T06:57:25;96145.00;;;14.80
10869;BMP180;62667;48.698;8.762;2023-05-28T06:59:52;96148.00;;;15.00
10869;BMP180;62667;48.698;8.762;2023-05-28T07:02:20;96141.00;;;15.10
10869;BMP180;62667;48.698;8.762;2023-05-28T07:04:47;96145.00;;;15.30
10869;BMP180;62667;48.698;8.762;2023-05-28T07:09:48;96147.00;;;15.50
10869;BMP180;62667;48.698;8.762;2023-05-28T07:12:16;96148.00;;;15.60
10869;BMP180;62667;48.698;8.762;2023-05-28T07:14:43;96142.00;;;15.80
10869;BMP180;62667;48.698;8.762;2023-05-28T07:17:11;96142.00;;;15.70
10869;BMP180;62667;48.698;8.762;2023-05-28T07:19:39;96150.00;;;15.90
10869;BMP180;62667;48.698;8.762;2023-05-28T07:22:06;96145.00;;;16.00
10869;BMP180;62667;48.698;8.762;2023-05-28T07:24:34;96147.00;;;16.20
10869;BMP180;62667;48.698;8.762;2023-05-28T07:27:02;96148.00;;;16.30
10869;BMP180;62667;48.698;8.762;2023-05-28T07:29:30;96151.00;;;16.40
10869;BMP180;62667;48.698;8.762;2023-05-28T07:31:57;96153.00;;;16.40
10869;BMP180;62667;48.698;8.762;2023-05-28T07:34:25;96155.00;;;16.60
10869;BMP180;62667;48.698;8.762;2023-05-28T07:36:52;96152.00;;;16.70
10869;BMP180;62667;48.698;8.762;2023-05-28T07:39:19;96142.00;;;16.80
10869;BMP180;62667;48.698;8.762;2023-05-28T07:41:47;96142.00;;;17.00
10869;BMP180;62667;48.698;8.762;2023-05-28T07:44:16;96152.00;;;17.40
10869;BMP180;62667;48.698;8.762;2023-05-28T07:46:43;96149.00;;;17.30
10869;BMP180;62667;48.698;8.762;2023-05-28T07:49:11;96151.00;;;17.50
10869;BMP180;62667;48.698;8.762;2023-05-28T07:51:38;96143.00;;;17.60
10869;BMP180;62667;48.698;8.762;2023-05-28T07:54:06;96150.00;;;17.60
10869;BMP180;62667;48.698;8.762;2023-05-28T07:56:33;96144.00;;;17.70
10869;BMP180;62667;48.698;8.762;2023-05-28T07:59:07;96149.00;;;17.90
10869;BMP180;62667;48.698;8.762;2023-05-28T08:01:36;96144.00;;;18.00
10869;BMP180;62667;48.698;8.762;2023-05-28T08:04:03;96147.00;;;18.20
10869;BMP180;62667;48.698;8.762;2023-05-28T08:06:30;96148.00;;;18.40
10869;BMP180;62667;48.698;8.762;2023-05-28T08:08:58;96142.00;;;18.40
10869;BMP180;62667;48.698;8.762;2023-05-28T08:11:26;96146.00;;;18.40
10869;BMP180;62667;48.698;8.762;2023-05-28T08:13:53;96151.00;;;18.60
10869;BMP180;62667;48.698;8.762;2023-05-28T08:16:21;96143.00;;;18.60
10869;BMP180;62667;48.698;8.762;2023-05-28T08:18:49;96149.00;;;18.70
10869;BMP180;62667;48.698;8.762;2023-05-28T08:21:17;96144.00;;;18.80
10869;BMP180;62667;48.698;8.762;2023-05-28T08:23:44;96144.00;;;19.00
10869;BMP180;62667;48.698;8.762;2023-05-28T08:26:12;96142.00;;;19.20
10869;BMP180;62667;48.698;8.762;2023-05-28T08:28:39;96141.00;;;19.30
10869;BMP180;62667;48.698;8.762;2023-05-28T08:31:06;96132.00;;;19.40
10869;BMP180;62667;48.698;8.762;2023-05-28T08:33:34;96132.00;;;19.30
10869;BMP180;62667;48.698;8.762;2023-05-28T08:36:03;96129.00;;;19.60
10869;BMP180;62667;48.698;8.762;2023-05-28T08:38:31;96129.00;;;19.70
10869;BMP180;62667;48.698;8.762;2023-05-28T08:40:58;96122.00;;;19.90
10869;BMP180;62667;48.698;8.762;2023-05-28T08:43:26;96123.00;;;20.20
10869;BMP180;62667;48.698;8.762;2023-05-28T08:45:54;96123.00;;;20.20
10869;BMP180;62667;48.698;8.762;2023-05-28T08:48:23;96124.00;;;20.10
10869;BMP180;62667;48.698;8.762;2023-05-28T08:50:52;96125.00;;;20.30
10869;BMP180;62667;48.698;8.762;2023-05-28T08:53:25;96122.00;;;20.30
10869;BMP180;62667;48.698;8.762;2023-05-28T08:55:55;96124.00;;;20.40
10869;BMP180;62667;48.698;8.762;2023-05-28T08:58:23;96118.00;;;20.50
10869;BMP180;62667;48.698;8.762;2023-05-28T09:00:51;96112.00;;;20.60
10869;BMP180;62667;48.698;8.762;2023-05-28T09:03:18;96116.00;;;20.40
10869;BMP180;62667;48.698;8.762;2023-05-28T09:05:46;96117.00;;;20.60
10869;BMP180;62667;48.698;8.762;2023-05-28T09:08:13;96123.00;;;20.60
10869;BMP180;62667;48.698;8.762;2023-05-28T09:10:43;96113.00;;;20.40
10869;BMP180;62667;48.698;8.762;2023-05-28T09:13:10;96114.00;;;20.50
10869;BMP180;62667;48.698;8.762;2023-05-28T09:15:38;96117.00;;;20.80
10869;BMP180;62667;48.698;8.762;2023-05-28T09:18:07;96107.00;;;20.90
10869;BMP180;62667;48.698;8.762;2023-05-28T09:20:35;96109.00;;;20.90
10869;BMP180;62667;48.698;8.762;2023-05-28T09:23:04;96120.00;;;21.00
10869;BMP180;62667;48.698;8.762;2023-05-28T09:25:35;96105.00;;;21.00
10869;BMP180;62667;48.698;8.762;2023-05-28T09:28:05;96110.00;;;21.20
10869;BMP180;62667;48.698;8.762;2023-05-28T09:30:34;96112.00;;;21.20
10869;BMP180;62667;48.698;8.762;2023-05-28T09:33:04;96104.00;;;21.20
10869;BMP180;62667;48.698;8.762;2023-05-28T09:35:32;96105.00;;;21.30
10869;BMP180;62667;48.698;8.762;2023-05-28T09:38:01;96107.00;;;21.30
10869;BMP180;62667;48.698;8.762;2023-05-28T09:40:29;96104.00;;;21.20
10869;BMP180;62667;48.698;8.762;2023-05-28T09:42:57;96102.00;;;21.20
10869;BMP180;62667;48.698;8.762;2023-05-28T09:45:27;96100.00;;;21.30
10869;BMP180;62667;48.698;8.762;2023-05-28T09:47:54;96102.00;;;21.30
10869;BMP180;62667;48.698;8.762;2023-05-28T09:50:22;96103.00;;;21.40
10869;BMP180;62667;48.698;8.762;2023-05-28T09:52:49;96101.00;;;21.00
10869;BMP180;62667;48.698;8.762;2023-05-28T09:55:20;96097.00;;;21.20
10869;BMP180;62667;48.698;8.762;2023-05-28T09:57:58;96096.00;;;21.20
10869;BMP180;62667;48.698;8.762;2023-05-28T10:00:32;96105.00;;;21.40
10869;BMP180;62667;48.698;8.762;2023-05-28T10:03:13;96095.00;;;21.60
10869;BMP180;62667;48.698;8.762;2023-05-28T10:05:43;96100.00;;;21.80
10869;BMP180;62667;48.698;8.762;2023-05-28T10:08:13;96103.00;;;21.70
10869;BMP180;62667;48.698;8.762;2023-05-28T10:10:51;96104.00;;;22.00
10869;BMP180;62667;48.698;8.762;2023-05-28T10:13:19;96102.00;;;22.30
10869;BMP180;62667;48.698;8.762;2023-05-28T10:15:48;96107.00;;;22.40
10869;BMP180;62667;48.698;8.762;2023-05-28T10:18:17;96101.00;;;22.10
10869;BMP180;62667;48.698;8.762;2023-05-28T10:20:47;96105.00;;;22.10
10869;BMP180;62667;48.698;8.762;2023-05-28T10:23:15;96097.00;;;22.20
10869;BMP180;62667;48.698;8.762;2023-05-28T10:25:43;96092.00;;;22.40
10869;BMP180;62667;48.698;8.762;2023-05-28T10:28:14;96093.00;;;22.40
10869;BMP180;62667;48.698;8.762;2023-05-28T10:30:42;96092.00;;;22.40
10869;BMP180;62667;48.698;8.762;2023-05-28T10:33:15;96095.00;;;22.80
10869;BMP180;62667;48.698;8.762;2023-05-28T10:35:51;96100.00;;;22.90
10869;BMP180;62667;48.698;8.762;2023-05-28T10:38:19;96094.00;;;23.20
10869;BMP180;62667;48.698;8.762;2023-05-28T10:40:46;96097.00;;;23.30
10869;BMP180;62667;48.698;8.762;2023-05-28T10:43:40;96093.00;;;23.40
10869;BMP180;62667;48.698;8.762;2023-05-28T10:46:09;96091.00;;;23.50
10869;BMP180;62667;48.698;8.762;2023-05-28T10:48:40;96089.00;;;23.60
10869;BMP180;62667;48.698;8.762;2023-05-28T10:51:08;96089.00;;;23.70
10869;BMP180;62667;48.698;8.762;2023-05-28T10:53:37;96096.00;;;23.60
10869;BMP180;62667;48.698;8.762;2023-05-28T10:56:05;96097.00;;;23.70
10869;BMP180;62667;48.698;8.762;2023-05-28T10:58:34;96091.00;;;23.80
10869;BMP180;62667;48.698;8.762;2023-05-28T11:01:04;96082.00;;;23.90
10869;BMP180;62667;48.698;8.762;2023-05-28T11:03:47;96083.00;;;24.00
10869;BMP180;62667;48.698;8.762;2023-05-28T11:06:18;96071.00;;;24.00
10869;BMP180;62667;48.698;8.762;2023-05-28T11:08:48;96079.00;;;24.00
10869;BMP180;62667;48.698;8.762;2023-05-28T11:11:17;96078.00;;;24.20
10869;BMP180;62667;48.698;8.762;2023-05-28T11:13:46;96078.00;;;24.30
10869;BMP180;62667;48.698;8.762;2023-05-28T11:16:15;96081.00;;;24.60
10869;BMP180;62667;48.698;8.762;2023-05-28T11:19:03;96080.00;;;24.60
10869;BMP180;62667;48.698;8.762;2023-05-28T11:21:30;96078.00;;;24.50
10869;BMP180;62667;48.698;8.762;2023-05-28T11:24:02;96084.00;;;24.60
10869;BMP180;62667;48.698;8.762;2023-05-28T11:26:31;96075.00;;;24.20
10869;BMP180;62667;48.698;8.762;2023-05-28T11:28:58;96071.00;;;24.40
10869;BMP180;62667;48.698;8.762;2023-05-28T11:31:26;96070.00;;;24.50
10869;BMP180;62667;48.698;8.762;2023-05-28T11:33:55;96067.00;;;24.80
10869;BMP180;62667;48.698;8.762;2023-05-28T11:36:24;96070.00;;;25.10
10869;BMP180;62667;48.698;8.762;2023-05-28T11:39:01;96066.00;;;24.90
10869;BMP180;62667;48.698;8.762;2023-05-28T11:41:29;96076.00;;;25.30
10869;BMP180;62667;48.698;8.762;2023-05-28T11:43:56;96073.00;;;25.30
10869;BMP180;62667;48.698;8.762;2023-05-28T11:46:24;96065.00;;;25.60
10869;BMP180;62667;48.698;8.762;2023-05-28T11:48:51;96074.00;;;25.80
10869;BMP180;62667;48.698;8.762;2023-05-28T11:51:20;96069.00;;;25.60
10869;BMP180;62667;48.698;8.762;2023-05-28T11:53:48;96069.00;;;25.40
10869;BMP180;62667;48.698;8.762;2023-05-28T11:56:16;96070.00;;;25.20
10869;BMP180;62667;48.698;8.762;2023-05-28T11:58:45;96074.00;;;25.60
10869;BMP180;62667;48.698;8.762;2023-05-28T12:01:15;96073.00;;;25.70
10869;BMP180;62667;48.698;8.762;2023-05-28T12:03:42;96073.00;;;25.80
10869;BMP180;62667;48.698;8.762;2023-05-28T12:06:11;96070.00;;;25.90
10869;BMP180;62667;48.698;8.762;2023-05-28T12:08:39;96069.00;;;25.90
10869;BMP180;62667;48.698;8.762;2023-05-28T12:11:09;96058.00;;;25.20
10869;BMP180;62667;48.698;8.762;2023-05-28T12:13:38;96063.00;;;25.50
10869;BMP180;62667;48.698;8.762;2023-05-28T12:16:07;96062.00;;;26.10
10869;BMP180;62667;48.698;8.762;2023-05-28T12:18:39;96062.00;;;26.40
10869;BMP180;62667;48.698;8.762;2023-05-28T12:21:11;96066.00;;;26.60
10869;BMP180;62667;48.698;8.762;2023-05-28T12:23:39;96057.00;;;26.60
10869;BMP180;62667;48.698;8.762;2023-05-28T12:26:11;96062.00;;;27.00
10869;BMP180;62667;48.698;8.762;2023-05-28T12:28:38;96066.00;;;27.10
10869;BMP180;62667;48.698;8.762;2023-05-28T12:31:07;96059.00;;;27.00
10869;BMP180;62667;48.698;8.762;2023-05-28T12:33:35;96062.00;;;26.80
10869;BMP180;62667;48.698;8.762;2023-05-28T12:36:02;96061.00;;;26.70
10869;BMP180;62667;48.698;8.762;2023-05-28T12:38:29;96064.00;;;26.80
10869;BMP180;62667;48.698;8.762;2023-05-28T12:40:56;96059.00;;;26.90
10869;BMP180;62667;48.698;8.762;2023-05-28T12:43:26;96054.00;;;26.50
10869;BMP180;62667;48.698;8.762;2023-05-28T12:45:53;96058.00;;;26.30
10869;BMP180;62667;48.698;8.762;2023-05-28T12:48:20;96053.00;;;26.70
10869;BMP180;62667;48.698;8.762;2023-05-28T12:50:47;96054.00;;;27.00
10869;BMP180;62667;48.698;8.762;2023-05-28T12:53:14;96049.00;;;26.60
10869;BMP180;62667;48.698;8.762;2023-05-28T12:55:41;96055.00;;;26.90
10869;BMP180;62667;48.698;8.762;2023-05-28T12:58:08;96041.00;;;27.30
10869;BMP180;62667;48.698;8.762;2023-05-28T13:00:37;96058.00;;;27.50
10869;BMP180;62667;48.698;8.762;2023-05-28T13:03:04;96053.00;;;27.70
10869;BMP180;62667;48.698;8.762;2023-05-28T13:05:33;96055.00;;;27.40
10869;BMP180;62667;48.698;8.762;2023-05-28T13:08:00;96045.00;;;27.30
10869;BMP180;62667;48.698;8.762;2023-05-28T13:10:28;96055.00;;;27.50
10869;BMP180;62667;48.698;8.762;2023-05-28T13:12:55;96049.00;;;26.60
10869;BMP180;62667;48.698;8.762;2023-05-28T13:15:23;96045.00;;;26.70
10869;BMP180;62667;48.698;8.762;2023-05-28T13:17:51;96051.00;;;27.50
10869;BMP180;62667;48.698;8.762;2023-05-28T13:20:18;96040.00;;;27.50
10869;BMP180;62667;48.698;8.762;2023-05-28T13:22:46;96035.00;;;27.90
10869;BMP180;62667;48.698;8.762;2023-05-28T13:25:13;96043.00;;;28.10
10869;BMP180;62667;48.698;8.762;2023-05-28T13:27:40;96048.00;;;27.90
10869;BMP180;62667;48.698;8.762;2023-05-28T13:30:09;96037.00;;;28.00
10869;BMP180;62667;48.698;8.762;2023-05-28T13:32:37;96039.00;;;27.90
10869;BMP180;62667;48.698;8.762;2023-05-28T13:35:06;96032.00;;;28.20
10869;BMP180;62667;48.698;8.762;2023-05-28T13:37:35;96031.00;;;27.50
10869;BMP180;62667;48.698;8.762;2023-05-28T13:40:04;96034.00;;;27.70
10869;BMP180;62667;48.698;8.762;2023-05-28T13:42:34;96025.00;;;28.00
10869;BMP180;62667;48.698;8.762;2023-05-28T13:45:01;96025.00;;;28.50
10869;BMP180;62667;48.698;8.762;2023-05-28T13:47:29;96021.00;;;27.80
10869;BMP180;62667;48.698;8.762;2023-05-28T13:49:57;96029.00;;;28.00
10869;BMP180;62667;48.698;8.762;2023-05-28T13:52:25;96026.00;;;28.40
10869;BMP180;62667;48.698;8.762;2023-05-28T13:54:52;96030.00;;;28.40
10869;BMP180;62667;48.698;8.762;2023-05-28T13:57:19;96024.00;;;28.60
10869;BMP180;62667;48.698;8.762;2023-05-28T13:59:46;96020.00;;;28.90
10869;BMP180;62667;48.698;8.762;2023-05-28T14:02:14;96020.00;;;29.00
10869;BMP180;62667;48.698;8.762;2023-05-28T14:04:41;96009.00;;;29.10
10869;BMP180;62667;48.698;8.762;2023-05-28T14:07:08;96020.00;;;28.90
10869;BMP180;62667;48.698;8.762;2023-05-28T14:09:37;96017.00;;;29.40
10869;BMP180;62667;48.698;8.762;2023-05-28T14:12:05;96011.00;;;29.30
10869;BMP180;62667;48.698;8.762;2023-05-28T14:14:32;96008.00;;;29.60
10869;BMP180;62667;48.698;8.762;2023-05-28T14:16:59;96012.00;;;29.50